• Join FlightAware (Why Join?)
  • Login
  • US Flag 
04:36AM EDT


 

Airport Tracker/Info


-or-


 

Live Flight TrackerFlight Track Log ✈ EJA929 ✈ 21-Dec-2013 ✈ KRDU - TKPK / SKB

Flight Track Log - Related Links

Times and Time Zones

All times are in EST time to prevent confusion due to time zone crossing. See the EJA929 flight status page for this flight to view local times or setup timezone preferences in your user account.

Time Position Orientation Groundspeed Altitude Reporting Facility
EST Latitude Longitude Course Direction KTS MPH feet Rate Location/Type
08:22AM 35.8583 -78.8083 200° South 187 215 1,000  Level Washington Center
08:22AM 35.8372 -78.8178 200° South 191 220 2,600 3,660 Climbing Washington Center
08:23AM 35.7803 -78.8383 196° South 211 243 6,200 3,300 Climbing Washington Center
08:23AM 35.7719 -78.8381 178° South 240 276 6,500 3,300 Climbing Washington Center
08:24AM 35.7039 -78.8097 161° South 240 276 10,100 2,700 Climbing Washington Center
08:25AM 35.6256 -78.7683 157° South 269 310 12,000 1,800 Climbing Washington Center
08:26AM 35.5331 -78.7186 156° South 365 420 13,800 2,280 Climbing Washington Center
08:27AM 35.4169 -78.6939 170° South 394 453 16,600 2,100 Climbing Washington Center
08:28AM 35.3192 -78.6797 173° South 400 460 18,000 1,320 Climbing Washington Center
08:29AM 35.2131 -78.6656 174° South 395 455 19,400 1,440 Climbing Washington Center
08:30AM 35.1072 -78.6489 173° South 395 455 20,900 1,500 Climbing Washington Center
08:31AM 34.9989 -78.6347 174° South 395 455 22,400 1,500 Climbing Washington Center
08:32AM 34.8939 -78.5825 158° South 395 455 24,000 1,560 Climbing Washington Center
08:33AM 34.7875 -78.4953 146° Southeast 395 455 25,600 1,560 Climbing Washington Center
08:34AM 34.6872 -78.4133 146° Southeast 432 497 27,200 1,440 Climbing Washington Center
08:35AM 34.5950 -78.3469 149° Southeast 432 497 28,500 1,320 Climbing Washington Center
08:36AM 34.4925 -78.2681 148° Southeast 432 497 29,900 1,440 Climbing Washington Center
08:37AM 34.3744 -78.2314 166° South 426 490 31,400 1,440 Climbing Washington Center
08:38AM 34.2558 -78.2100 172° South 426 490 32,900 960 Climbing Washington Center
08:40AM 34.0317 -78.1667 171° South 465 535 34,100 840 Climbing Jacksonville Center
08:41AM 33.8969 -78.1364 169° South 487 560 35,200 900 Climbing Jacksonville Center
08:42AM 33.7603 -78.1064 170° South 492 566 36,000 360 Climbing Jacksonville Center
08:43AM 33.6194 -78.0792 171° South 503 579 36,000 120 Level Jacksonville Center
08:44AM 33.4775 -78.0247 162° South 518 596 36,300 600 Climbing Jacksonville Center
08:45AM 33.3414 -77.9550 157° South 531 611 37,300 960 Climbing Jacksonville Center
08:46AM 33.2072 -77.8881 157° South 531 611 38,300 960 Climbing Jacksonville Center
08:47AM 33.0750 -77.8186 156° South 525 604 39,300 960 Climbing Jacksonville Center
08:48AM 32.9408 -77.7544 158° South 520 598 40,300 540 Climbing Jacksonville Center
08:49AM 32.8092 -77.6928 159° South 515 593 40,400 -120 Climbing Jacksonville Center
08:50AM 32.6750 -77.6289 158° South 515 593 40,100 -240 Descending Jacksonville Center
08:51AM 32.5386 -77.5628 158° South 522 601 40,000 -60 Descending Jacksonville Center
08:52AM 32.4000 -77.4972 158° South 522 601 40,000  Level Jacksonville Center
08:53AM 32.2656 -77.4267 156° South 522 601 40,000  Level Jacksonville Center
08:54AM 32.1272 -77.3661 160° South 527 606 40,000  Level Jacksonville Center
08:55AM 31.9906 -77.2961 157° South 527 606 40,000  Level Jacksonville Center
08:56AM 31.8522 -77.2311 158° South 534 615 40,000  Level Jacksonville Center
08:57AM 31.7136 -77.1686 159° South 534 615 40,000  Level Jacksonville Center
09:00AM 31.3500 -77.0000 140° Southeast 531 611 40,000  Level New York Oceanic (ODAPS)
09:27AM 28.2500 -74.1167 149° Southeast 519 597 40,000  Level New York Oceanic (ODAPS)
09:53AM 24.7258 -71.9547 172° South 550 633 40,400  Climbing Miami Center
09:54AM 24.7000 -71.9553 172° South 519 597 40,000 540 Descending FlightAware Transoceanic
09:54AM 24.6019 -71.8706 148° Southeast 545 627 41,000  Climbing Miami Center
09:55AM 24.5500 -71.9331 172° South 519 597 40,000  Descending FlightAware Transoceanic
09:55AM 24.4936 -71.7517 135° Southeast 532 612 41,000  Climbing Miami Center
09:56AM 24.4000 -71.9109 172° South 519 597 40,000  Descending FlightAware Transoceanic
09:56AM 24.3833 -71.6492 140° Southeast 532 612 41,000  Climbing Miami Center
09:57AM 24.2500 -71.8888 172° South 519 597 40,000  Descending FlightAware Transoceanic
09:57AM 24.2728 -71.5331 136° Southeast 532 612 41,000 540 Climbing Miami Center
09:58AM 24.1642 -71.4172 136° Southeast 537 618 41,000  Level Miami Center
09:59AM 24.0539 -71.3106 139° Southeast 537 618 41,000  Level Miami Center
10:00AM 23.9433 -71.2064 139° Southeast 537 618 41,000  Level Miami Center
10:01AM 23.8342 -71.0797 133° Southeast 543 625 41,000  Level Miami Center
10:02AM 23.7233 -70.9669 137° Southeast 536 617 41,000  Level Miami Center
10:03AM 23.6150 -70.8656 139° Southeast 531 611 41,000  Level Miami Center
10:04AM 23.5039 -70.7508 137° Southeast 536 617 41,000  Level Miami Center
10:05AM 23.3928 -70.6386 137° Southeast 536 617 41,000  Level Miami Center
10:06AM 23.2817 -70.5264 137° Southeast 536 617 41,000  Level Miami Center
10:07AM 23.1708 -70.4192 138° Southeast 537 618 41,000  Level Miami Center
10:08AM 23.0508 -70.2967 137° Southeast 537 618 41,000  Level Miami Center
10:09AM 22.9394 -70.1875 138° Southeast 542 624 41,000  Level Miami Center
10:10AM 22.8258 -70.0742 137° Southeast 542 624 41,000  Level Miami Center
10:11AM 22.7167 -69.9650 137° Southeast 542 624 41,000  Level Miami Center
10:12AM 22.6033 -69.8544 138° Southeast 542 624 41,000  Level Miami Center
10:13AM 22.4894 -69.7417 138° Southeast 542 624 41,000  Level Miami Center
10:14AM 22.3781 -69.6311 137° Southeast 542 624 41,000  Level Miami Center
10:15AM 22.2664 -69.5208 138° Southeast 542 624 41,000  Level Miami Center
10:16AM 22.1547 -69.4106 138° Southeast 542 624 41,000  Level Miami Center
10:17AM 22.0406 -69.2964 137° Southeast 542 624 41,000  Level Miami Center
10:18AM 21.9267 -69.1844 138° Southeast 542 624 41,000  Level Miami Center
10:19AM 21.8150 -69.0772 138° Southeast 542 624 41,000  Level Miami Center
10:20AM 21.7008 -68.9656 138° Southeast 542 624 41,000  Level Miami Center
10:21AM 21.5825 -68.8544 139° Southeast 542 624 41,000  Level Miami Center
10:22AM 21.4683 -68.7433 138° Southeast 552 635 41,000  Level Miami Center
10:23AM 21.3542 -68.6325 138° Southeast 552 635 41,000  Level Miami Center
10:24AM 21.2419 -68.5217 137° Southeast 552 635 41,000  Level Miami Center
10:25AM 21.1339 -68.4106 136° Southeast 546 628 41,000  Level Miami Center
10:26AM 21.0175 -68.3006 139° Southeast 546 628 41,000  Level Miami Center
10:27AM 20.9031 -68.1903 138° Southeast 546 628 41,000  Level Miami Center
10:28AM 20.7883 -68.0758 137° Southeast 546 628 41,000  Level Miami Center
10:29AM 20.7056 -67.9375 123° Southeast 551 634 41,000  Level Miami Center
10:30AM 20.6389 -67.8267 123° Southeast 556 640 41,000  Level Miami Center
10:31AM 20.5458 -67.6961 127° Southeast 556 640 41,000  Level Miami Center
10:32AM 20.4500 -67.5667 128° Southeast 560 644 41,000  Level San Juan Center
10:33AM 20.3500 -67.4333 129° Southeast 560 644 41,000  Level San Juan Center
10:34AM 20.2500 -67.3167 132° Southeast 560 644 41,000  Level San Juan Center
10:35AM 20.1667 -67.1833 124° Southeast 560 644 41,000  Level San Juan Center
10:36AM 20.0667 -67.0500 129° Southeast 560 644 41,000  Level San Juan Center
10:37AM 19.9667 -66.9167 129° Southeast 560 644 41,000  Level San Juan Center
10:38AM 19.8667 -66.7833 129° Southeast 570 656 41,000  Level San Juan Center
10:39AM 19.7833 -66.6500 124° Southeast 560 644 41,000  Level San Juan Center
10:40AM 19.6833 -66.5333 132° Southeast 560 644 41,000  Level San Juan Center
10:41AM 19.5833 -66.4000 129° Southeast 560 644 41,000  Level San Juan Center
10:42AM 19.4833 -66.2667 128° Southeast 570 656 41,000  Level San Juan Center
10:43AM 19.3833 -66.1333 128° Southeast 560 644 41,000  Level San Juan Center
10:44AM 19.2833 -66.0000 128° Southeast 560 644 41,000  Level San Juan Center
10:45AM 19.2000 -65.8833 127° Southeast 560 644 41,000  Level San Juan Center
10:46AM 19.0833 -65.7333 129° Southeast 570 656 41,000  Level San Juan Center
10:47AM 18.9833 -65.6000 128° Southeast 560 644 41,000  Level San Juan Center
10:48AM 18.8833 -65.4667 128° Southeast 560 644 41,000  Level San Juan Center
10:49AM 18.7833 -65.3333 128° Southeast 570 656 41,000  Level San Juan Center
10:50AM 18.7000 -65.2167 127° Southeast 560 644 41,000 -120 Level San Juan Center
10:51AM 18.6000 -65.0833 128° Southeast 570 656 40,800 -1,080 Descending San Juan Center
10:52AM 18.5000 -64.9500 128° Southeast 560 644 38,900 -1,980 Descending San Juan Center
10:53AM 18.4000 -64.8167 128° Southeast 580 667 36,900 -2,040 Descending San Juan Center
10:54AM 18.3000 -64.7000 132° Southeast 560 644 34,900 -2,040 Descending San Juan Center
10:55AM 18.2000 -64.5667 128° Southeast 550 633 32,800 -2,100 Descending San Juan Center
10:56AM 18.1000 -64.4333 128° Southeast 550 633 30,800 -2,100 Descending San Juan Center
10:57AM 18.0000 -64.3167 132° Southeast 550 633 28,700 -2,040 Descending San Juan Center
10:58AM 17.9167 -64.2000 127° Southeast 530 610 26,800 -1,980 Descending San Juan Center
10:59AM 17.8167 -64.0833 132° Southeast 510 587 24,800 -1,920 Descending San Juan Center
11:00AM 17.7333 -63.9667 127° Southeast 480 552 23,000 -900 Descending San Juan Center
11:01AM 17.6500 -63.8667 131° Southeast 480 552 23,000  Level San Juan Center
11:02AM 17.5667 -63.7500 127° Southeast 480 552 23,000  Level San Juan Center
11:03AM 17.4833 -63.6500 131° Southeast 470 541 23,000 -780 Level San Juan Center
11:04AM 17.4667 -63.5167 97° East 440 506 21,500 -2,340 Descending San Juan Center
11:05AM 17.4333 -63.4000 107° East 440 506 18,300 -3,240 Descending San Juan Center
11:06AM 17.4000 -63.2833 107° East 420 483 15,000 -3,420 Descending San Juan Center
11:07AM 17.3833 -63.1667 98° East 390 449 11,500 -3,060 Descending San Juan Center
11:08AM 17.3667 -63.0833 102° East 350 403 8,900 -2,760 Descending San Juan Center
11:09AM 17.3500 -63.0000 102° East 280 322 6,000 -2,940 Descending San Juan Center
11:11AM 17.3023 -62.8115 102° East  Level FlightAware Approximate
11:18AM 17.3112 -62.7187 North  Level Estimated
11:19AM 17.3112 -62.7187 North  Level Estimated
11:20AM 17.3112 -62.7187 North  Level Estimated
11:21AM 17.3112 -62.7187 North  Level Estimated
11:22AM 17.3112 -62.7187 North  Level Estimated
11:23AM 17.3112 -62.7187 North  Level Estimated
11:24AM 17.3112 -62.7187 North  Level Estimated
11:25AM 17.3112 -62.7187 North  Level Estimated
11:26AM 17.3112 -62.7187 North  Level Estimated
11:27AM 17.3112 -62.7187 North  Level Estimated
11:28AM 17.3112 -62.7187 North  Level Estimated
11:29AM 17.3112 -62.7187 North  Level Estimated
11:30AM 17.3112 -62.7187 North  Level Estimated
11:31AM 17.3112 -62.7187 North  Level Estimated
11:32AM 17.3112 -62.7187 North  Level Estimated
11:33AM 17.3112 -62.7187 North  Level Estimated